sensor_id;sensor_type;location;lat;lon;timestamp;P1;durP1;ratioP1;P2;durP2;ratioP2
15331;SDS011;7766;51.534;6.722;2024-01-11T00:01:08;30.17;;;16.50;;
15331;SDS011;7766;51.534;6.722;2024-01-11T00:03:35;34.10;;;17.27;;
15331;SDS011;7766;51.534;6.722;2024-01-11T00:06:01;38.33;;;18.00;;
15331;SDS011;7766;51.534;6.722;2024-01-11T00:08:27;36.73;;;16.90;;
15331;SDS011;7766;51.534;6.722;2024-01-11T00:10:52;29.30;;;15.73;;
15331;SDS011;7766;51.534;6.722;2024-01-11T00:13:18;38.13;;;17.87;;
15331;SDS011;7766;51.534;6.722;2024-01-11T00:15:44;32.17;;;16.97;;
15331;SDS011;7766;51.534;6.722;2024-01-11T00:18:10;33.43;;;18.03;;
15331;SDS011;7766;51.534;6.722;2024-01-11T00:20:36;31.13;;;15.70;;
15331;SDS011;7766;51.534;6.722;2024-01-11T00:23:02;32.30;;;15.33;;
15331;SDS011;7766;51.534;6.722;2024-01-11T00:25:28;35.83;;;17.97;;
15331;SDS011;7766;51.534;6.722;2024-01-11T00:27:54;32.87;;;16.83;;
15331;SDS011;7766;51.534;6.722;2024-01-11T00:30:20;34.80;;;17.47;;
15331;SDS011;7766;51.534;6.722;2024-01-11T00:32:48;31.20;;;16.70;;
15331;SDS011;7766;51.534;6.722;2024-01-11T00:35:14;31.10;;;16.90;;
15331;SDS011;7766;51.534;6.722;2024-01-11T00:37:40;34.03;;;17.17;;
15331;SDS011;7766;51.534;6.722;2024-01-11T00:40:06;36.07;;;17.97;;
15331;SDS011;7766;51.534;6.722;2024-01-11T00:42:32;35.57;;;18.33;;
15331;SDS011;7766;51.534;6.722;2024-01-11T00:44:59;33.13;;;18.17;;
15331;SDS011;7766;51.534;6.722;2024-01-11T00:47:25;34.07;;;17.77;;
15331;SDS011;7766;51.534;6.722;2024-01-11T00:49:52;32.67;;;17.33;;
15331;SDS011;7766;51.534;6.722;2024-01-11T00:52:18;31.87;;;17.00;;
15331;SDS011;7766;51.534;6.722;2024-01-11T00:54:44;32.50;;;16.47;;
15331;SDS011;7766;51.534;6.722;2024-01-11T00:57:10;31.70;;;16.77;;
15331;SDS011;7766;51.534;6.722;2024-01-11T00:59:36;30.83;;;15.87;;
15331;SDS011;7766;51.534;6.722;2024-01-11T01:02:02;40.40;;;16.47;;
15331;SDS011;7766;51.534;6.722;2024-01-11T01:04:28;34.87;;;17.30;;
15331;SDS011;7766;51.534;6.722;2024-01-11T01:06:54;36.30;;;16.80;;
15331;SDS011;7766;51.534;6.722;2024-01-11T01:09:20;33.93;;;17.60;;
15331;SDS011;7766;51.534;6.722;2024-01-11T01:11:46;34.07;;;16.70;;
15331;SDS011;7766;51.534;6.722;2024-01-11T01:14:12;37.17;;;17.00;;
15331;SDS011;7766;51.534;6.722;2024-01-11T01:16:37;31.67;;;16.30;;
15331;SDS011;7766;51.534;6.722;2024-01-11T01:19:03;36.73;;;18.57;;
15331;SDS011;7766;51.534;6.722;2024-01-11T01:21:29;30.50;;;16.43;;
15331;SDS011;7766;51.534;6.722;2024-01-11T01:23:55;31.63;;;16.00;;
15331;SDS011;7766;51.534;6.722;2024-01-11T01:26:21;34.93;;;17.27;;
15331;SDS011;7766;51.534;6.722;2024-01-11T01:28:47;33.20;;;17.63;;
15331;SDS011;7766;51.534;6.722;2024-01-11T01:31:13;34.20;;;18.37;;
15331;SDS011;7766;51.534;6.722;2024-01-11T01:33:39;31.97;;;17.17;;
15331;SDS011;7766;51.534;6.722;2024-01-11T01:36:07;36.07;;;17.57;;
15331;SDS011;7766;51.534;6.722;2024-01-11T01:38:35;36.87;;;18.23;;
15331;SDS011;7766;51.534;6.722;2024-01-11T01:41:00;36.13;;;17.50;;
15331;SDS011;7766;51.534;6.722;2024-01-11T01:43:26;33.13;;;18.23;;
15331;SDS011;7766;51.534;6.722;2024-01-11T01:45:52;32.13;;;17.40;;
15331;SDS011;7766;51.534;6.722;2024-01-11T01:48:18;39.10;;;18.67;;
15331;SDS011;7766;51.534;6.722;2024-01-11T01:50:45;35.83;;;17.87;;
15331;SDS011;7766;51.534;6.722;2024-01-11T01:53:16;37.13;;;16.53;;
15331;SDS011;7766;51.534;6.722;2024-01-11T01:55:46;33.57;;;17.27;;
15331;SDS011;7766;51.534;6.722;2024-01-11T01:58:13;34.00;;;16.83;;
15331;SDS011;7766;51.534;6.722;2024-01-11T02:00:40;32.67;;;16.30;;
15331;SDS011;7766;51.534;6.722;2024-01-11T02:03:06;35.27;;;17.10;;
15331;SDS011;7766;51.534;6.722;2024-01-11T02:05:33;31.63;;;16.83;;
15331;SDS011;7766;51.534;6.722;2024-01-11T02:08:00;31.53;;;17.43;;
15331;SDS011;7766;51.534;6.722;2024-01-11T02:10:26;36.97;;;18.00;;
15331;SDS011;7766;51.534;6.722;2024-01-11T02:12:52;30.47;;;17.30;;
15331;SDS011;7766;51.534;6.722;2024-01-11T02:15:18;34.93;;;18.37;;
15331;SDS011;7766;51.534;6.722;2024-01-11T02:17:44;33.20;;;16.77;;
15331;SDS011;7766;51.534;6.722;2024-01-11T02:20:10;40.43;;;17.87;;
15331;SDS011;7766;51.534;6.722;2024-01-11T02:22:38;34.93;;;17.93;;
15331;SDS011;7766;51.534;6.722;2024-01-11T02:25:04;39.13;;;17.07;;
15331;SDS011;7766;51.534;6.722;2024-01-11T02:27:30;34.10;;;18.43;;
15331;SDS011;7766;51.534;6.722;2024-01-11T02:29:56;33.53;;;17.43;;
15331;SDS011;7766;51.534;6.722;2024-01-11T02:32:22;37.00;;;17.47;;
15331;SDS011;7766;51.534;6.722;2024-01-11T02:34:48;32.90;;;16.53;;
15331;SDS011;7766;51.534;6.722;2024-01-11T02:37:14;32.53;;;16.43;;
15331;SDS011;7766;51.534;6.722;2024-01-11T02:39:40;31.20;;;17.70;;
15331;SDS011;7766;51.534;6.722;2024-01-11T02:42:06;34.43;;;17.43;;
15331;SDS011;7766;51.534;6.722;2024-01-11T02:44:32;40.93;;;16.70;;
15331;SDS011;7766;51.534;6.722;2024-01-11T02:46:58;32.17;;;16.13;;
15331;SDS011;7766;51.534;6.722;2024-01-11T02:49:24;34.80;;;17.87;;
15331;SDS011;7766;51.534;6.722;2024-01-11T02:51:50;34.03;;;17.63;;
15331;SDS011;7766;51.534;6.722;2024-01-11T02:54:16;31.67;;;17.73;;
15331;SDS011;7766;51.534;6.722;2024-01-11T02:56:42;40.30;;;18.33;;
15331;SDS011;7766;51.534;6.722;2024-01-11T02:59:07;35.17;;;16.80;;
15331;SDS011;7766;51.534;6.722;2024-01-11T03:01:33;35.03;;;18.27;;
15331;SDS011;7766;51.534;6.722;2024-01-11T03:03:59;39.27;;;16.97;;
15331;SDS011;7766;51.534;6.722;2024-01-11T03:06:25;33.30;;;16.33;;
15331;SDS011;7766;51.534;6.722;2024-01-11T03:08:51;38.00;;;18.57;;
15331;SDS011;7766;51.534;6.722;2024-01-11T03:11:17;36.40;;;17.53;;
15331;SDS011;7766;51.534;6.722;2024-01-11T03:13:43;39.80;;;17.47;;
15331;SDS011;7766;51.534;6.722;2024-01-11T03:16:09;35.40;;;17.23;;
15331;SDS011;7766;51.534;6.722;2024-01-11T03:18:35;37.20;;;19.03;;
15331;SDS011;7766;51.534;6.722;2024-01-11T03:21:01;33.97;;;17.07;;
15331;SDS011;7766;51.534;6.722;2024-01-11T03:23:27;32.67;;;16.67;;
15331;SDS011;7766;51.534;6.722;2024-01-11T03:25:53;34.40;;;17.40;;
15331;SDS011;7766;51.534;6.722;2024-01-11T03:28:19;31.63;;;15.77;;
15331;SDS011;7766;51.534;6.722;2024-01-11T03:30:45;31.80;;;17.37;;
15331;SDS011;7766;51.534;6.722;2024-01-11T03:33:10;34.10;;;17.60;;
15331;SDS011;7766;51.534;6.722;2024-01-11T03:35:36;39.07;;;19.23;;
15331;SDS011;7766;51.534;6.722;2024-01-11T03:38:05;38.40;;;18.33;;
15331;SDS011;7766;51.534;6.722;2024-01-11T03:40:31;37.13;;;17.20;;
15331;SDS011;7766;51.534;6.722;2024-01-11T03:42:57;33.30;;;17.13;;
15331;SDS011;7766;51.534;6.722;2024-01-11T03:45:23;40.87;;;17.80;;
15331;SDS011;7766;51.534;6.722;2024-01-11T03:47:49;35.67;;;17.03;;
15331;SDS011;7766;51.534;6.722;2024-01-11T03:50:14;33.97;;;17.37;;
15331;SDS011;7766;51.534;6.722;2024-01-11T03:52:41;37.67;;;18.70;;
15331;SDS011;7766;51.534;6.722;2024-01-11T03:55:07;32.97;;;17.07;;
15331;SDS011;7766;51.534;6.722;2024-01-11T03:57:33;36.67;;;18.60;;
15331;SDS011;7766;51.534;6.722;2024-01-11T03:59:59;36.17;;;17.57;;
15331;SDS011;7766;51.534;6.722;2024-01-11T04:02:25;33.57;;;17.87;;
15331;SDS011;7766;51.534;6.722;2024-01-11T04:04:51;33.90;;;17.77;;
15331;SDS011;7766;51.534;6.722;2024-01-11T04:07:18;33.10;;;17.00;;
15331;SDS011;7766;51.534;6.722;2024-01-11T04:09:45;36.60;;;17.77;;
15331;SDS011;7766;51.534;6.722;2024-01-11T04:12:10;38.20;;;17.20;;
15331;SDS011;7766;51.534;6.722;2024-01-11T04:14:39;35.43;;;17.57;;
15331;SDS011;7766;51.534;6.722;2024-01-11T04:17:05;38.57;;;17.53;;
15331;SDS011;7766;51.534;6.722;2024-01-11T04:19:31;41.00;;;18.47;;
15331;SDS011;7766;51.534;6.722;2024-01-11T04:21:57;39.27;;;19.63;;
15331;SDS011;7766;51.534;6.722;2024-01-11T04:24:23;32.87;;;17.40;;
15331;SDS011;7766;51.534;6.722;2024-01-11T04:26:49;40.33;;;18.23;;
15331;SDS011;7766;51.534;6.722;2024-01-11T04:29:15;37.73;;;19.07;;
15331;SDS011;7766;51.534;6.722;2024-01-11T04:31:41;34.80;;;17.67;;
15331;SDS011;7766;51.534;6.722;2024-01-11T04:34:07;34.93;;;18.47;;
15331;SDS011;7766;51.534;6.722;2024-01-11T04:36:36;36.53;;;17.90;;
15331;SDS011;7766;51.534;6.722;2024-01-11T04:39:02;38.10;;;18.50;;
15331;SDS011;7766;51.534;6.722;2024-01-11T04:41:28;40.27;;;17.23;;
15331;SDS011;7766;51.534;6.722;2024-01-11T04:43:54;39.20;;;18.50;;
15331;SDS011;7766;51.534;6.722;2024-01-11T04:46:21;38.57;;;18.73;;
15331;SDS011;7766;51.534;6.722;2024-01-11T04:48:47;39.33;;;19.70;;
15331;SDS011;7766;51.534;6.722;2024-01-11T04:51:14;36.17;;;18.30;;
15331;SDS011;7766;51.534;6.722;2024-01-11T04:53:40;36.00;;;18.17;;
15331;SDS011;7766;51.534;6.722;2024-01-11T04:56:06;37.17;;;17.77;;
15331;SDS011;7766;51.534;6.722;2024-01-11T04:58:33;34.53;;;18.17;;
15331;SDS011;7766;51.534;6.722;2024-01-11T05:01:03;40.93;;;17.40;;
15331;SDS011;7766;51.534;6.722;2024-01-11T05:03:29;34.17;;;17.80;;
15331;SDS011;7766;51.534;6.722;2024-01-11T05:05:55;37.03;;;17.87;;
15331;SDS011;7766;51.534;6.722;2024-01-11T05:08:21;34.80;;;18.20;;
15331;SDS011;7766;51.534;6.722;2024-01-11T05:10:48;35.03;;;17.30;;
15331;SDS011;7766;51.534;6.722;2024-01-11T05:13:14;37.60;;;18.43;;
15331;SDS011;7766;51.534;6.722;2024-01-11T05:15:39;38.83;;;18.17;;
15331;SDS011;7766;51.534;6.722;2024-01-11T05:18:05;34.57;;;16.80;;
15331;SDS011;7766;51.534;6.722;2024-01-11T05:20:31;34.53;;;17.57;;
15331;SDS011;7766;51.534;6.722;2024-01-11T05:22:57;30.17;;;15.93;;
15331;SDS011;7766;51.534;6.722;2024-01-11T05:25:23;39.53;;;17.43;;
15331;SDS011;7766;51.534;6.722;2024-01-11T05:27:49;34.50;;;17.17;;
15331;SDS011;7766;51.534;6.722;2024-01-11T05:30:15;34.87;;;16.40;;
15331;SDS011;7766;51.534;6.722;2024-01-11T05:32:41;34.27;;;17.07;;
15331;SDS011;7766;51.534;6.722;2024-01-11T05:35:07;33.07;;;16.53;;
15331;SDS011;7766;51.534;6.722;2024-01-11T05:37:32;39.67;;;17.20;;
15331;SDS011;7766;51.534;6.722;2024-01-11T05:39:58;37.50;;;18.13;;
15331;SDS011;7766;51.534;6.722;2024-01-11T05:42:24;30.57;;;16.93;;
15331;SDS011;7766;51.534;6.722;2024-01-11T05:44:51;38.17;;;18.43;;
15331;SDS011;7766;51.534;6.722;2024-01-11T05:47:17;43.27;;;19.10;;
15331;SDS011;7766;51.534;6.722;2024-01-11T05:49:43;31.87;;;17.13;;
15331;SDS011;7766;51.534;6.722;2024-01-11T05:52:10;34.03;;;16.60;;
15331;SDS011;7766;51.534;6.722;2024-01-11T05:54:36;36.73;;;17.37;;
15331;SDS011;7766;51.534;6.722;2024-01-11T05:57:02;34.43;;;17.43;;
15331;SDS011;7766;51.534;6.722;2024-01-11T05:59:27;42.90;;;19.37;;
15331;SDS011;7766;51.534;6.722;2024-01-11T06:01:53;31.73;;;16.27;;
15331;SDS011;7766;51.534;6.722;2024-01-11T06:04:19;35.33;;;16.17;;
15331;SDS011;7766;51.534;6.722;2024-01-11T06:06:45;35.37;;;18.13;;
15331;SDS011;7766;51.534;6.722;2024-01-11T06:09:11;33.93;;;16.13;;
15331;SDS011;7766;51.534;6.722;2024-01-11T06:11:37;40.60;;;18.37;;
15331;SDS011;7766;51.534;6.722;2024-01-11T06:14:03;33.00;;;16.47;;
15331;SDS011;7766;51.534;6.722;2024-01-11T06:16:29;35.73;;;17.63;;
15331;SDS011;7766;51.534;6.722;2024-01-11T06:18:55;38.07;;;15.90;;
15331;SDS011;7766;51.534;6.722;2024-01-11T06:21:21;33.60;;;16.73;;
15331;SDS011;7766;51.534;6.722;2024-01-11T06:23:47;30.40;;;15.67;;
15331;SDS011;7766;51.534;6.722;2024-01-11T06:26:14;34.20;;;16.48;;
15331;SDS011;7766;51.534;6.722;2024-01-11T06:28:40;32.67;;;16.63;;
15331;SDS011;7766;51.534;6.722;2024-01-11T06:31:06;34.55;;;17.33;;
15331;SDS011;7766;51.534;6.722;2024-01-11T06:33:32;36.37;;;17.20;;
15331;SDS011;7766;51.534;6.722;2024-01-11T06:36:01;32.30;;;16.52;;
15331;SDS011;7766;51.534;6.722;2024-01-11T06:38:27;42.17;;;17.73;;
15331;SDS011;7766;51.534;6.722;2024-01-11T06:40:53;40.90;;;18.47;;
15331;SDS011;7766;51.534;6.722;2024-01-11T06:43:19;35.57;;;17.30;;
15331;SDS011;7766;51.534;6.722;2024-01-11T06:45:45;32.87;;;16.87;;
15331;SDS011;7766;51.534;6.722;2024-01-11T06:48:11;42.47;;;19.00;;
15331;SDS011;7766;51.534;6.722;2024-01-11T06:50:37;44.67;;;18.60;;
15331;SDS011;7766;51.534;6.722;2024-01-11T06:53:03;38.57;;;17.80;;
15331;SDS011;7766;51.534;6.722;2024-01-11T06:55:29;39.70;;;19.37;;
15331;SDS011;7766;51.534;6.722;2024-01-11T06:57:55;36.73;;;17.93;;
15331;SDS011;7766;51.534;6.722;2024-01-11T07:00:22;42.67;;;19.52;;
15331;SDS011;7766;51.534;6.722;2024-01-11T07:02:48;34.10;;;18.90;;
15331;SDS011;7766;51.534;6.722;2024-01-11T07:05:14;32.83;;;16.88;;
15331;SDS011;7766;51.534;6.722;2024-01-11T07:07:40;37.33;;;18.80;;
15331;SDS011;7766;51.534;6.722;2024-01-11T07:10:06;35.20;;;18.43;;
15331;SDS011;7766;51.534;6.722;2024-01-11T07:12:33;39.83;;;18.40;;
15331;SDS011;7766;51.534;6.722;2024-01-11T07:14:59;34.17;;;17.57;;
15331;SDS011;7766;51.534;6.722;2024-01-11T07:17:25;36.33;;;17.90;;
15331;SDS011;7766;51.534;6.722;2024-01-11T07:19:51;39.77;;;18.03;;
15331;SDS011;7766;51.534;6.722;2024-01-11T07:22:17;35.20;;;18.13;;
15331;SDS011;7766;51.534;6.722;2024-01-11T07:24:42;33.83;;;16.43;;
15331;SDS011;7766;51.534;6.722;2024-01-11T07:27:09;39.67;;;17.63;;
15331;SDS011;7766;51.534;6.722;2024-01-11T07:29:35;34.83;;;16.33;;
15331;SDS011;7766;51.534;6.722;2024-01-11T07:32:01;37.00;;;18.60;;
15331;SDS011;7766;51.534;6.722;2024-01-11T07:34:28;39.72;;;17.60;;
15331;SDS011;7766;51.534;6.722;2024-01-11T07:36:54;36.47;;;18.73;;
15331;SDS011;7766;51.534;6.722;2024-01-11T07:39:21;37.00;;;17.13;;
15331;SDS011;7766;51.534;6.722;2024-01-11T07:41:47;36.90;;;17.55;;
15331;SDS011;7766;51.534;6.722;2024-01-11T07:44:14;35.70;;;17.35;;
15331;SDS011;7766;51.534;6.722;2024-01-11T07:46:41;33.58;;;17.10;;
15331;SDS011;7766;51.534;6.722;2024-01-11T07:49:07;36.15;;;17.15;;
15331;SDS011;7766;51.534;6.722;2024-01-11T07:51:33;34.97;;;17.27;;
15331;SDS011;7766;51.534;6.722;2024-01-11T07:54:02;37.30;;;18.00;;
15331;SDS011;7766;51.534;6.722;2024-01-11T07:56:28;37.13;;;18.17;;
15331;SDS011;7766;51.534;6.722;2024-01-11T07:58:54;37.28;;;18.55;;
15331;SDS011;7766;51.534;6.722;2024-01-11T08:01:21;34.97;;;17.33;;
15331;SDS011;7766;51.534;6.722;2024-01-11T08:03:47;40.93;;;17.93;;
15331;SDS011;7766;51.534;6.722;2024-01-11T08:06:12;34.20;;;17.93;;
15331;SDS011;7766;51.534;6.722;2024-01-11T08:08:39;41.90;;;18.33;;
15331;SDS011;7766;51.534;6.722;2024-01-11T08:11:06;38.03;;;18.87;;
15331;SDS011;7766;51.534;6.722;2024-01-11T08:13:32;36.30;;;18.83;;
15331;SDS011;7766;51.534;6.722;2024-01-11T08:16:00;32.57;;;16.80;;
15331;SDS011;7766;51.534;6.722;2024-01-11T08:18:26;33.67;;;16.63;;
15331;SDS011;7766;51.534;6.722;2024-01-11T08:20:52;35.03;;;17.53;;
15331;SDS011;7766;51.534;6.722;2024-01-11T08:23:18;36.70;;;16.80;;
15331;SDS011;7766;51.534;6.722;2024-01-11T08:25:44;36.23;;;17.67;;
15331;SDS011;7766;51.534;6.722;2024-01-11T08:28:10;40.13;;;18.40;;
15331;SDS011;7766;51.534;6.722;2024-01-11T08:30:36;33.43;;;16.57;;
15331;SDS011;7766;51.534;6.722;2024-01-11T08:33:02;40.43;;;19.00;;
15331;SDS011;7766;51.534;6.722;2024-01-11T08:35:29;41.23;;;17.97;;
15331;SDS011;7766;51.534;6.722;2024-01-11T08:37:54;33.27;;;17.67;;
15331;SDS011;7766;51.534;6.722;2024-01-11T08:40:20;37.70;;;18.10;;
15331;SDS011;7766;51.534;6.722;2024-01-11T08:42:46;34.67;;;17.83;;
15331;SDS011;7766;51.534;6.722;2024-01-11T08:45:12;34.57;;;18.33;;
15331;SDS011;7766;51.534;6.722;2024-01-11T08:47:43;37.57;;;16.77;;
15331;SDS011;7766;51.534;6.722;2024-01-11T08:50:11;35.30;;;17.73;;
15331;SDS011;7766;51.534;6.722;2024-01-11T08:52:37;30.57;;;16.77;;
15331;SDS011;7766;51.534;6.722;2024-01-11T08:55:04;34.47;;;17.57;;
15331;SDS011;7766;51.534;6.722;2024-01-11T08:57:31;31.33;;;16.73;;
15331;SDS011;7766;51.534;6.722;2024-01-11T08:59:56;39.10;;;18.57;;
15331;SDS011;7766;51.534;6.722;2024-01-11T09:02:22;31.33;;;17.07;;
15331;SDS011;7766;51.534;6.722;2024-01-11T09:04:48;36.97;;;19.23;;
15331;SDS011;7766;51.534;6.722;2024-01-11T09:07:14;41.77;;;18.03;;
15331;SDS011;7766;51.534;6.722;2024-01-11T09:09:40;36.73;;;18.03;;
15331;SDS011;7766;51.534;6.722;2024-01-11T09:12:06;37.60;;;18.93;;
15331;SDS011;7766;51.534;6.722;2024-01-11T09:14:32;32.83;;;17.97;;
15331;SDS011;7766;51.534;6.722;2024-01-11T09:16:58;34.90;;;17.83;;
15331;SDS011;7766;51.534;6.722;2024-01-11T09:19:24;39.10;;;18.43;;
15331;SDS011;7766;51.534;6.722;2024-01-11T09:21:50;34.50;;;18.20;;
15331;SDS011;7766;51.534;6.722;2024-01-11T09:24:16;34.00;;;17.40;;
15331;SDS011;7766;51.534;6.722;2024-01-11T09:26:41;33.73;;;17.97;;
15331;SDS011;7766;51.534;6.722;2024-01-11T09:29:07;38.50;;;19.20;;
15331;SDS011;7766;51.534;6.722;2024-01-11T09:31:33;32.40;;;18.33;;
15331;SDS011;7766;51.534;6.722;2024-01-11T09:33:59;32.93;;;18.30;;
15331;SDS011;7766;51.534;6.722;2024-01-11T09:36:25;34.03;;;19.50;;
15331;SDS011;7766;51.534;6.722;2024-01-11T09:38:51;37.67;;;19.60;;
15331;SDS011;7766;51.534;6.722;2024-01-11T09:41:17;36.03;;;18.33;;
15331;SDS011;7766;51.534;6.722;2024-01-11T09:43:43;37.10;;;19.83;;
15331;SDS011;7766;51.534;6.722;2024-01-11T09:46:10;33.83;;;18.50;;
15331;SDS011;7766;51.534;6.722;2024-01-11T09:48:37;32.63;;;17.87;;
15331;SDS011;7766;51.534;6.722;2024-01-11T09:51:04;32.80;;;18.23;;
15331;SDS011;7766;51.534;6.722;2024-01-11T09:53:31;28.77;;;17.27;;
15331;SDS011;7766;51.534;6.722;2024-01-11T09:55:58;29.67;;;17.27;;
15331;SDS011;7766;51.534;6.722;2024-01-11T09:58:23;33.90;;;17.90;;
15331;SDS011;7766;51.534;6.722;2024-01-11T10:00:52;30.27;;;18.03;;
15331;SDS011;7766;51.534;6.722;2024-01-11T10:03:19;33.07;;;18.67;;
15331;SDS011;7766;51.534;6.722;2024-01-11T10:05:46;30.83;;;17.73;;
15331;SDS011;7766;51.534;6.722;2024-01-11T10:08:17;32.33;;;18.07;;
15331;SDS011;7766;51.534;6.722;2024-01-11T10:10:43;34.40;;;18.87;;
15331;SDS011;7766;51.534;6.722;2024-01-11T10:13:09;37.83;;;19.13;;
15331;SDS011;7766;51.534;6.722;2024-01-11T10:15:36;27.23;;;17.10;;
15331;SDS011;7766;51.534;6.722;2024-01-11T10:18:01;33.73;;;19.50;;
15331;SDS011;7766;51.534;6.722;2024-01-11T10:20:27;31.27;;;18.47;;
15331;SDS011;7766;51.534;6.722;2024-01-11T10:22:55;30.67;;;18.40;;
15331;SDS011;7766;51.534;6.722;2024-01-11T10:25:22;28.93;;;18.30;;
15331;SDS011;7766;51.534;6.722;2024-01-11T10:27:48;31.17;;;16.83;;
15331;SDS011;7766;51.534;6.722;2024-01-11T10:30:15;31.53;;;18.00;;
15331;SDS011;7766;51.534;6.722;2024-01-11T10:32:44;36.10;;;18.53;;
15331;SDS011;7766;51.534;6.722;2024-01-11T10:35:11;30.83;;;16.77;;
15331;SDS011;7766;51.534;6.722;2024-01-11T10:37:37;31.27;;;17.90;;
15331;SDS011;7766;51.534;6.722;2024-01-11T10:40:07;28.03;;;16.60;;
15331;SDS011;7766;51.534;6.722;2024-01-11T10:42:40;36.53;;;17.40;;
15331;SDS011;7766;51.534;6.722;2024-01-11T10:45:10;26.83;;;16.93;;
15331;SDS011;7766;51.534;6.722;2024-01-11T10:47:36;34.47;;;18.40;;
15331;SDS011;7766;51.534;6.722;2024-01-11T10:50:03;33.33;;;17.90;;
15331;SDS011;7766;51.534;6.722;2024-01-11T10:52:35;29.80;;;17.10;;
15331;SDS011;7766;51.534;6.722;2024-01-11T10:55:05;34.90;;;17.33;;
15331;SDS011;7766;51.534;6.722;2024-01-11T10:57:31;26.93;;;17.60;;
15331;SDS011;7766;51.534;6.722;2024-01-11T10:59:57;29.07;;;17.10;;
15331;SDS011;7766;51.534;6.722;2024-01-11T11:02:27;29.93;;;17.33;;
15331;SDS011;7766;51.534;6.722;2024-01-11T11:04:54;31.07;;;18.07;;
15331;SDS011;7766;51.534;6.722;2024-01-11T11:07:21;32.03;;;18.00;;
15331;SDS011;7766;51.534;6.722;2024-01-11T11:09:49;31.53;;;17.67;;
15331;SDS011;7766;51.534;6.722;2024-01-11T11:12:15;26.13;;;15.60;;
15331;SDS011;7766;51.534;6.722;2024-01-11T11:14:43;32.27;;;17.40;;
15331;SDS011;7766;51.534;6.722;2024-01-11T11:17:12;32.40;;;17.10;;
15331;SDS011;7766;51.534;6.722;2024-01-11T11:19:40;28.50;;;16.40;;
15331;SDS011;7766;51.534;6.722;2024-01-11T11:22:06;25.13;;;15.73;;
15331;SDS011;7766;51.534;6.722;2024-01-11T11:24:35;34.07;;;17.87;;
15331;SDS011;7766;51.534;6.722;2024-01-11T11:27:01;27.30;;;15.77;;
15331;SDS011;7766;51.534;6.722;2024-01-11T11:29:28;27.30;;;15.90;;
15331;SDS011;7766;51.534;6.722;2024-01-11T11:31:54;27.83;;;16.13;;
15331;SDS011;7766;51.534;6.722;2024-01-11T11:34:41;27.90;;;15.87;;
15331;SDS011;7766;51.534;6.722;2024-01-11T11:37:09;30.67;;;16.33;;
15331;SDS011;7766;51.534;6.722;2024-01-11T11:39:36;28.17;;;15.90;;
15331;SDS011;7766;51.534;6.722;2024-01-11T11:42:02;29.27;;;16.73;;
15331;SDS011;7766;51.534;6.722;2024-01-11T11:44:29;30.07;;;16.70;;
15331;SDS011;7766;51.534;6.722;2024-01-11T11:46:55;29.47;;;15.27;;
15331;SDS011;7766;51.534;6.722;2024-01-11T11:49:57;25.00;;;15.23;;
15331;SDS011;7766;51.534;6.722;2024-01-11T11:52:33;23.53;;;14.83;;
15331;SDS011;7766;51.534;6.722;2024-01-11T11:55:02;27.93;;;14.53;;
15331;SDS011;7766;51.534;6.722;2024-01-11T11:57:28;32.07;;;13.97;;
15331;SDS011;7766;51.534;6.722;2024-01-11T11:59:55;28.80;;;15.27;;
15331;SDS011;7766;51.534;6.722;2024-01-11T12:02:22;25.43;;;14.83;;
15331;SDS011;7766;51.534;6.722;2024-01-11T12:04:49;24.90;;;14.47;;
15331;SDS011;7766;51.534;6.722;2024-01-11T12:07:15;21.43;;;14.13;;
15331;SDS011;7766;51.534;6.722;2024-01-11T12:09:41;28.30;;;14.30;;
15331;SDS011;7766;51.534;6.722;2024-01-11T12:12:07;24.50;;;14.00;;
15331;SDS011;7766;51.534;6.722;2024-01-11T12:14:36;24.30;;;14.27;;
15331;SDS011;7766;51.534;6.722;2024-01-11T12:17:02;29.97;;;13.97;;
15331;SDS011;7766;51.534;6.722;2024-01-11T12:19:29;25.23;;;14.53;;
15331;SDS011;7766;51.534;6.722;2024-01-11T12:21:54;24.50;;;14.20;;
15331;SDS011;7766;51.534;6.722;2024-01-11T12:24:20;20.93;;;13.00;;
15331;SDS011;7766;51.534;6.722;2024-01-11T12:26:49;23.00;;;13.23;;
15331;SDS011;7766;51.534;6.722;2024-01-11T12:29:17;21.07;;;12.70;;
15331;SDS011;7766;51.534;6.722;2024-01-11T12:31:46;19.87;;;12.33;;
15331;SDS011;7766;51.534;6.722;2024-01-11T12:34:13;21.67;;;12.63;;
15331;SDS011;7766;51.534;6.722;2024-01-11T12:36:40;20.43;;;12.37;;
15331;SDS011;7766;51.534;6.722;2024-01-11T12:39:06;20.47;;;13.03;;
15331;SDS011;7766;51.534;6.722;2024-01-11T12:41:33;22.67;;;13.83;;
15331;SDS011;7766;51.534;6.722;2024-01-11T12:43:59;24.53;;;13.77;;
15331;SDS011;7766;51.534;6.722;2024-01-11T12:46:25;22.40;;;12.80;;
15331;SDS011;7766;51.534;6.722;2024-01-11T12:48:51;20.63;;;12.20;;
15331;SDS011;7766;51.534;6.722;2024-01-11T12:51:17;19.60;;;11.70;;
15331;SDS011;7766;51.534;6.722;2024-01-11T12:53:46;18.83;;;12.13;;
15331;SDS011;7766;51.534;6.722;2024-01-11T12:56:14;17.97;;;12.07;;
15331;SDS011;7766;51.534;6.722;2024-01-11T12:58:40;22.07;;;12.67;;
15331;SDS011;7766;51.534;6.722;2024-01-11T13:01:06;23.30;;;12.53;;
15331;SDS011;7766;51.534;6.722;2024-01-11T13:03:33;21.03;;;12.90;;
15331;SDS011;7766;51.534;6.722;2024-01-11T13:05:59;20.47;;;12.67;;
15331;SDS011;7766;51.534;6.722;2024-01-11T13:08:25;24.47;;;13.83;;
15331;SDS011;7766;51.534;6.722;2024-01-11T13:10:52;21.70;;;12.30;;
15331;SDS011;7766;51.534;6.722;2024-01-11T13:13:17;22.43;;;13.10;;
15331;SDS011;7766;51.534;6.722;2024-01-11T13:15:43;22.77;;;13.70;;
15331;SDS011;7766;51.534;6.722;2024-01-11T13:18:09;22.70;;;12.73;;
15331;SDS011;7766;51.534;6.722;2024-01-11T13:20:35;23.27;;;11.97;;
15331;SDS011;7766;51.534;6.722;2024-01-11T13:23:19;23.13;;;12.07;;
15331;SDS011;7766;51.534;6.722;2024-01-11T13:25:46;20.07;;;11.97;;
15331;SDS011;7766;51.534;6.722;2024-01-11T13:28:15;19.53;;;11.80;;
15331;SDS011;7766;51.534;6.722;2024-01-11T13:30:41;21.27;;;12.53;;
15331;SDS011;7766;51.534;6.722;2024-01-11T13:33:08;21.67;;;12.50;;
15331;SDS011;7766;51.534;6.722;2024-01-11T13:35:35;24.23;;;13.23;;
15331;SDS011;7766;51.534;6.722;2024-01-11T13:38:02;27.93;;;12.90;;
15331;SDS011;7766;51.534;6.722;2024-01-11T13:40:32;20.27;;;11.53;;
15331;SDS011;7766;51.534;6.722;2024-01-11T13:42:58;41.50;;;23.03;;
15331;SDS011;7766;51.534;6.722;2024-01-11T13:45:26;17.53;;;11.43;;
15331;SDS011;7766;51.534;6.722;2024-01-11T13:47:53;21.57;;;14.07;;
15331;SDS011;7766;51.534;6.722;2024-01-11T13:50:19;20.27;;;11.77;;
15331;SDS011;7766;51.534;6.722;2024-01-11T13:52:45;20.50;;;10.77;;
15331;SDS011;7766;51.534;6.722;2024-01-11T13:55:11;19.63;;;11.23;;
15331;SDS011;7766;51.534;6.722;2024-01-11T13:57:37;17.50;;;11.03;;
15331;SDS011;7766;51.534;6.722;2024-01-11T14:00:04;18.57;;;11.60;;
15331;SDS011;7766;51.534;6.722;2024-01-11T14:02:30;20.47;;;11.70;;
15331;SDS011;7766;51.534;6.722;2024-01-11T14:04:57;16.00;;;11.07;;
15331;SDS011;7766;51.534;6.722;2024-01-11T14:07:22;20.17;;;10.83;;
15331;SDS011;7766;51.534;6.722;2024-01-11T14:09:49;19.67;;;10.83;;
15331;SDS011;7766;51.534;6.722;2024-01-11T14:12:14;20.07;;;11.80;;
15331;SDS011;7766;51.534;6.722;2024-01-11T14:14:40;17.73;;;10.93;;
15331;SDS011;7766;51.534;6.722;2024-01-11T14:17:06;18.63;;;11.20;;
15331;SDS011;7766;51.534;6.722;2024-01-11T14:19:33;20.23;;;11.53;;
15331;SDS011;7766;51.534;6.722;2024-01-11T14:21:58;17.83;;;11.03;;
15331;SDS011;7766;51.534;6.722;2024-01-11T14:24:24;17.80;;;10.23;;
15331;SDS011;7766;51.534;6.722;2024-01-11T14:26:50;19.93;;;10.37;;
15331;SDS011;7766;51.534;6.722;2024-01-11T14:29:16;18.67;;;10.23;;